sensor_id;sensor_type;location;lat;lon;timestamp;pressure;altitude;pressure_sealevel;temperature;humidity
38530;BME280;24301;54.332;48.386;2022-08-16T00:01:50;99801.31;;;20.38;50.22
38530;BME280;24301;54.332;48.386;2022-08-16T00:04:16;99801.31;;;20.38;51.83
38530;BME280;24301;54.332;48.386;2022-08-16T00:06:42;99801.31;;;20.38;52.23
38530;BME280;24301;54.332;48.386;2022-08-16T00:09:09;99794.38;;;20.34;51.72
38530;BME280;24301;54.332;48.386;2022-08-16T00:11:35;99800.72;;;20.32;51.32
38530;BME280;24301;54.332;48.386;2022-08-16T00:14:03;99803.44;;;20.30;51.46
38530;BME280;24301;54.332;48.386;2022-08-16T00:16:30;99798.97;;;20.31;50.93
38530;BME280;24301;54.332;48.386;2022-08-16T00:18:58;99804.44;;;20.28;49.63
38530;BME280;24301;54.332;48.386;2022-08-16T00:21:24;99800.09;;;20.25;49.22
38530;BME280;24301;54.332;48.386;2022-08-16T00:23:51;99794.84;;;20.23;47.70
38530;BME280;24301;54.332;48.386;2022-08-16T00:26:17;99799.28;;;20.23;48.44
38530;BME280;24301;54.332;48.386;2022-08-16T00:28:42;99799.47;;;20.18;48.80
38530;BME280;24301;54.332;48.386;2022-08-16T00:31:08;99802.94;;;20.20;51.34
38530;BME280;24301;54.332;48.386;2022-08-16T00:33:34;99800.34;;;20.19;52.36
38530;BME280;24301;54.332;48.386;2022-08-16T00:36:00;99809.34;;;20.16;53.53
38530;BME280;24301;54.332;48.386;2022-08-16T00:38:26;99809.47;;;20.13;54.81
38530;BME280;24301;54.332;48.386;2022-08-16T00:40:52;99818.59;;;20.07;55.58
38530;BME280;24301;54.332;48.386;2022-08-16T00:43:22;99820.56;;;20.02;56.72
38530;BME280;24301;54.332;48.386;2022-08-16T00:48:40;99821.06;;;19.90;57.86
38530;BME280;24301;54.332;48.386;2022-08-16T00:51:06;99815.09;;;19.83;58.66
38530;BME280;24301;54.332;48.386;2022-08-16T00:53:33;99828.44;;;19.83;59.18
38530;BME280;24301;54.332;48.386;2022-08-16T00:56:12;99818.88;;;19.77;57.20
38530;BME280;24301;54.332;48.386;2022-08-16T00:58:42;99819.00;;;19.74;58.12
38530;BME280;24301;54.332;48.386;2022-08-16T01:01:09;99814.72;;;19.70;57.67
38530;BME280;24301;54.332;48.386;2022-08-16T01:03:37;99818.31;;;19.69;55.61
38530;BME280;24301;54.332;48.386;2022-08-16T01:06:04;99817.50;;;19.67;54.61
38530;BME280;24301;54.332;48.386;2022-08-16T01:08:33;99811.28;;;19.66;52.76
38530;BME280;24301;54.332;48.386;2022-08-16T01:11:00;99812.22;;;19.65;51.86
38530;BME280;24301;54.332;48.386;2022-08-16T01:13:29;99807.69;;;19.67;52.66
38530;BME280;24301;54.332;48.386;2022-08-16T01:15:59;99815.63;;;19.69;52.97
38530;BME280;24301;54.332;48.386;2022-08-16T01:18:32;99819.13;;;19.71;54.91
38530;BME280;24301;54.332;48.386;2022-08-16T01:23:57;99819.78;;;19.76;55.79
38530;BME280;24301;54.332;48.386;2022-08-16T01:26:27;99822.41;;;19.78;53.43
38530;BME280;24301;54.332;48.386;2022-08-16T01:28:59;99826.72;;;19.80;54.84
38530;BME280;24301;54.332;48.386;2022-08-16T01:31:27;99822.47;;;19.76;53.92
38530;BME280;24301;54.332;48.386;2022-08-16T01:33:54;99812.94;;;19.71;53.01
38530;BME280;24301;54.332;48.386;2022-08-16T01:36:21;99825.13;;;19.76;51.99
38530;BME280;24301;54.332;48.386;2022-08-16T01:38:49;99818.81;;;19.79;51.91
38530;BME280;24301;54.332;48.386;2022-08-16T01:41:20;99810.75;;;19.80;52.22
38530;BME280;24301;54.332;48.386;2022-08-16T01:43:50;99817.72;;;19.85;52.70
38530;BME280;24301;54.332;48.386;2022-08-16T01:46:35;99821.81;;;19.93;53.82
38530;BME280;24301;54.332;48.386;2022-08-16T01:49:15;99808.94;;;20.05;51.37
38530;BME280;24301;54.332;48.386;2022-08-16T01:51:44;99813.34;;;20.49;51.54
38530;BME280;24301;54.332;48.386;2022-08-16T01:54:12;99810.63;;;20.92;50.05
38530;BME280;24301;54.332;48.386;2022-08-16T01:56:47;99819.38;;;21.35;48.18
38530;BME280;24301;54.332;48.386;2022-08-16T01:59:14;99812.47;;;21.70;46.48
38530;BME280;24301;54.332;48.386;2022-08-16T02:01:41;99811.78;;;22.03;44.15
38530;BME280;24301;54.332;48.386;2022-08-16T02:04:07;99801.84;;;22.42;42.33
38530;BME280;24301;54.332;48.386;2022-08-16T02:06:33;99807.03;;;22.80;41.17
38530;BME280;24301;54.332;48.386;2022-08-16T02:08:59;99807.00;;;23.15;40.46
38530;BME280;24301;54.332;48.386;2022-08-16T02:11:26;99807.50;;;23.39;39.00
38530;BME280;24301;54.332;48.386;2022-08-16T02:13:52;99801.78;;;23.62;38.52
38530;BME280;24301;54.332;48.386;2022-08-16T02:16:18;99806.06;;;23.82;37.83
38530;BME280;24301;54.332;48.386;2022-08-16T02:18:47;99796.06;;;24.00;37.18
38530;BME280;24301;54.332;48.386;2022-08-16T02:21:13;99790.34;;;24.22;36.76
38530;BME280;24301;54.332;48.386;2022-08-16T02:23:40;99803.59;;;24.56;36.19
38530;BME280;24301;54.332;48.386;2022-08-16T02:26:06;99798.09;;;24.88;35.87
38530;BME280;24301;54.332;48.386;2022-08-16T02:28:33;99802.63;;;25.17;35.32
38530;BME280;24301;54.332;48.386;2022-08-16T02:31:04;99816.94;;;25.46;34.41
38530;BME280;24301;54.332;48.386;2022-08-16T02:33:32;99804.06;;;25.66;33.73
38530;BME280;24301;54.332;48.386;2022-08-16T02:35:58;99797.09;;;25.91;33.33
38530;BME280;24301;54.332;48.386;2022-08-16T02:38:28;99804.97;;;26.21;32.58
38530;BME280;24301;54.332;48.386;2022-08-16T02:40:55;99806.88;;;26.47;32.55
38530;BME280;24301;54.332;48.386;2022-08-16T02:43:27;99800.47;;;26.88;31.59
38530;BME280;24301;54.332;48.386;2022-08-16T02:45:57;99800.88;;;27.34;30.95
38530;BME280;24301;54.332;48.386;2022-08-16T02:48:24;99804.16;;;27.76;30.62
38530;BME280;24301;54.332;48.386;2022-08-16T02:50:51;99810.06;;;28.19;30.45
38530;BME280;24301;54.332;48.386;2022-08-16T02:53:17;99811.56;;;28.59;30.35
38530;BME280;24301;54.332;48.386;2022-08-16T02:55:43;99805.41;;;29.04;28.99
38530;BME280;24301;54.332;48.386;2022-08-16T02:58:09;99820.19;;;29.57;27.82
38530;BME280;24301;54.332;48.386;2022-08-16T03:00:36;99822.69;;;30.04;27.33
38530;BME280;24301;54.332;48.386;2022-08-16T03:03:04;99825.81;;;30.53;27.13
38530;BME280;24301;54.332;48.386;2022-08-16T03:05:30;99824.00;;;30.96;26.94
38530;BME280;24301;54.332;48.386;2022-08-16T03:07:58;99840.03;;;31.20;26.42
38530;BME280;24301;54.332;48.386;2022-08-16T03:10:24;99842.13;;;31.48;27.38
38530;BME280;24301;54.332;48.386;2022-08-16T03:12:50;99844.50;;;31.72;27.18
38530;BME280;24301;54.332;48.386;2022-08-16T03:15:16;99841.88;;;32.11;28.03
38530;BME280;24301;54.332;48.386;2022-08-16T03:17:44;99850.06;;;32.31;27.92
38530;BME280;24301;54.332;48.386;2022-08-16T03:20:11;99851.94;;;32.50;28.50
38530;BME280;24301;54.332;48.386;2022-08-16T03:22:38;99852.03;;;32.78;28.15
38530;BME280;24301;54.332;48.386;2022-08-16T03:25:09;99853.19;;;32.86;27.82
38530;BME280;24301;54.332;48.386;2022-08-16T03:27:37;99849.91;;;33.49;26.80
38530;BME280;24301;54.332;48.386;2022-08-16T03:30:18;99857.75;;;34.08;26.28
38530;BME280;24301;54.332;48.386;2022-08-16T03:32:49;99856.44;;;34.13;26.18
38530;BME280;24301;54.332;48.386;2022-08-16T03:35:17;99868.44;;;34.20;25.92
38530;BME280;24301;54.332;48.386;2022-08-16T03:37:43;99861.25;;;34.19;25.29
38530;BME280;24301;54.332;48.386;2022-08-16T03:40:11;99863.34;;;34.07;25.19
38530;BME280;24301;54.332;48.386;2022-08-16T03:42:38;99871.56;;;34.25;24.01
38530;BME280;24301;54.332;48.386;2022-08-16T03:45:04;99859.19;;;34.93;24.14
38530;BME280;24301;54.332;48.386;2022-08-16T03:47:34;99863.97;;;35.44;23.31
38530;BME280;24301;54.332;48.386;2022-08-16T03:50:01;99874.63;;;35.99;22.48
38530;BME280;24301;54.332;48.386;2022-08-16T03:52:28;99871.78;;;36.25;22.25
38530;BME280;24301;54.332;48.386;2022-08-16T03:54:55;99879.91;;;36.51;22.07
38530;BME280;24301;54.332;48.386;2022-08-16T04:02:11;99870.97;;;37.24;19.81
38530;BME280;24301;54.332;48.386;2022-08-16T04:04:38;99872.78;;;37.57;19.88
38530;BME280;24301;54.332;48.386;2022-08-16T04:07:06;99882.22;;;37.86;19.83
38530;BME280;24301;54.332;48.386;2022-08-16T04:09:34;99874.56;;;38.36;18.90
38530;BME280;24301;54.332;48.386;2022-08-16T04:14:45;99881.16;;;38.27;17.77
38530;BME280;24301;54.332;48.386;2022-08-16T04:17:12;99874.31;;;37.91;18.04
38530;BME280;24301;54.332;48.386;2022-08-16T04:19:40;99878.34;;;38.12;18.44
38530;BME280;24301;54.332;48.386;2022-08-16T04:22:06;99883.47;;;38.15;17.88
38530;BME280;24301;54.332;48.386;2022-08-16T04:24:39;99879.06;;;38.60;17.67
38530;BME280;24301;54.332;48.386;2022-08-16T04:27:05;99876.25;;;38.84;17.03
38530;BME280;24301;54.332;48.386;2022-08-16T04:29:31;99882.03;;;39.27;17.27
38530;BME280;24301;54.332;48.386;2022-08-16T04:31:58;99888.16;;;40.04;16.51
38530;BME280;24301;54.332;48.386;2022-08-16T04:34:33;99889.16;;;40.55;15.79
38530;BME280;24301;54.332;48.386;2022-08-16T04:37:00;99890.22;;;40.61;16.03
38530;BME280;24301;54.332;48.386;2022-08-16T04:39:27;99884.94;;;40.37;15.94
38530;BME280;24301;54.332;48.386;2022-08-16T04:41:54;99887.94;;;40.64;15.58
38530;BME280;24301;54.332;48.386;2022-08-16T04:44:20;99896.00;;;40.88;15.92
38530;BME280;24301;54.332;48.386;2022-08-16T04:46:46;99887.59;;;41.25;15.48
38530;BME280;24301;54.332;48.386;2022-08-16T04:49:11;99895.91;;;41.60;15.28
38530;BME280;24301;54.332;48.386;2022-08-16T04:51:38;99893.56;;;42.19;15.11
38530;BME280;24301;54.332;48.386;2022-08-16T04:54:08;99894.19;;;42.07;14.96
38530;BME280;24301;54.332;48.386;2022-08-16T04:56:34;99898.38;;;41.97;14.93
38530;BME280;24301;54.332;48.386;2022-08-16T04:59:00;99896.66;;;41.89;14.84
38530;BME280;24301;54.332;48.386;2022-08-16T05:01:33;99904.09;;;41.95;14.41
38530;BME280;24301;54.332;48.386;2022-08-16T05:03:59;99898.34;;;41.90;14.73
38530;BME280;24301;54.332;48.386;2022-08-16T05:06:28;99900.44;;;41.81;15.06
38530;BME280;24301;54.332;48.386;2022-08-16T05:08:55;99903.94;;;42.10;14.15
38530;BME280;24301;54.332;48.386;2022-08-16T05:11:23;99904.50;;;42.68;14.00
38530;BME280;24301;54.332;48.386;2022-08-16T05:13:51;99901.28;;;43.18;13.79
38530;BME280;24301;54.332;48.386;2022-08-16T05:16:23;99910.47;;;42.91;13.41
38530;BME280;24301;54.332;48.386;2022-08-16T05:19:10;99913.88;;;42.93;14.07
38530;BME280;24301;54.332;48.386;2022-08-16T05:21:37;99910.88;;;42.75;14.52
38530;BME280;24301;54.332;48.386;2022-08-16T05:24:05;99916.44;;;42.88;14.11
38530;BME280;24301;54.332;48.386;2022-08-16T05:26:32;99908.13;;;43.02;13.90
38530;BME280;24301;54.332;48.386;2022-08-16T05:28:59;99903.44;;;43.36;13.80
38530;BME280;24301;54.332;48.386;2022-08-16T05:31:27;99910.00;;;43.28;13.36
38530;BME280;24301;54.332;48.386;2022-08-16T05:33:53;99915.44;;;43.75;13.46
38530;BME280;24301;54.332;48.386;2022-08-16T05:36:21;99913.34;;;43.71;13.09
38530;BME280;24301;54.332;48.386;2022-08-16T05:38:50;99907.28;;;43.94;12.42
38530;BME280;24301;54.332;48.386;2022-08-16T05:41:16;99909.38;;;43.19;12.48
38530;BME280;24301;54.332;48.386;2022-08-16T05:43:44;99912.16;;;42.72;13.26
38530;BME280;24301;54.332;48.386;2022-08-16T05:46:12;99906.00;;;42.63;12.95
38530;BME280;24301;54.332;48.386;2022-08-16T05:48:38;99919.59;;;43.12;12.75
38530;BME280;24301;54.332;48.386;2022-08-16T05:51:09;99909.78;;;43.43;12.66
38530;BME280;24301;54.332;48.386;2022-08-16T05:53:36;99923.69;;;44.67;12.00
38530;BME280;24301;54.332;48.386;2022-08-16T05:56:11;99915.06;;;45.51;11.67
38530;BME280;24301;54.332;48.386;2022-08-16T05:58:40;99913.25;;;45.57;11.57
38530;BME280;24301;54.332;48.386;2022-08-16T06:01:10;99919.91;;;45.37;11.81
38530;BME280;24301;54.332;48.386;2022-08-16T06:03:38;99916.19;;;45.81;11.59
38530;BME280;24301;54.332;48.386;2022-08-16T06:06:11;99920.72;;;46.43;11.28
38530;BME280;24301;54.332;48.386;2022-08-16T06:08:37;99915.13;;;46.61;11.22
38530;BME280;24301;54.332;48.386;2022-08-16T06:11:03;99908.72;;;46.00;10.89
38530;BME280;24301;54.332;48.386;2022-08-16T06:13:30;99920.69;;;45.44;11.11
38530;BME280;24301;54.332;48.386;2022-08-16T06:15:56;99912.84;;;44.90;11.63
38530;BME280;24301;54.332;48.386;2022-08-16T06:18:22;99918.66;;;45.33;11.76
38530;BME280;24301;54.332;48.386;2022-08-16T06:20:48;99914.81;;;45.34;11.88
38530;BME280;24301;54.332;48.386;2022-08-16T06:23:20;99916.47;;;45.16;11.96
38530;BME280;24301;54.332;48.386;2022-08-16T06:26:00;99912.28;;;45.32;12.03
38530;BME280;24301;54.332;48.386;2022-08-16T06:28:32;99913.44;;;45.81;11.60
38530;BME280;24301;54.332;48.386;2022-08-16T06:30:59;99911.91;;;45.66;11.84
38530;BME280;24301;54.332;48.386;2022-08-16T06:33:25;99917.13;;;45.37;11.64
38530;BME280;24301;54.332;48.386;2022-08-16T06:35:52;99917.34;;;45.35;11.48
38530;BME280;24301;54.332;48.386;2022-08-16T06:38:19;99916.06;;;45.38;11.76
38530;BME280;24301;54.332;48.386;2022-08-16T06:40:46;99920.94;;;45.17;11.55
38530;BME280;24301;54.332;48.386;2022-08-16T06:43:11;99918.13;;;45.43;12.02
38530;BME280;24301;54.332;48.386;2022-08-16T06:45:40;99925.00;;;45.40;11.17
38530;BME280;24301;54.332;48.386;2022-08-16T06:48:14;99915.44;;;45.73;11.23
38530;BME280;24301;54.332;48.386;2022-08-16T06:50:40;99908.66;;;45.51;11.88
38530;BME280;24301;54.332;48.386;2022-08-16T06:53:07;99909.97;;;45.48;11.62
38530;BME280;24301;54.332;48.386;2022-08-16T06:55:34;99902.47;;;45.30;11.71
38530;BME280;24301;54.332;48.386;2022-08-16T06:58:05;99906.50;;;44.58;12.53
38530;BME280;24301;54.332;48.386;2022-08-16T07:00:31;99904.69;;;43.99;13.35
38530;BME280;24301;54.332;48.386;2022-08-16T07:03:08;99903.44;;;43.36;13.21
38530;BME280;24301;54.332;48.386;2022-08-16T07:05:34;99893.03;;;42.57;13.88
38530;BME280;24301;54.332;48.386;2022-08-16T07:08:07;99895.97;;;42.35;14.52
38530;BME280;24301;54.332;48.386;2022-08-16T07:10:35;99885.53;;;42.24;14.62
38530;BME280;24301;54.332;48.386;2022-08-16T07:13:01;99888.75;;;42.34;14.52
38530;BME280;24301;54.332;48.386;2022-08-16T07:15:27;99897.22;;;42.40;14.57
38530;BME280;24301;54.332;48.386;2022-08-16T07:17:53;99897.63;;;42.43;14.45
38530;BME280;24301;54.332;48.386;2022-08-16T07:20:19;99896.22;;;41.92;14.67
38530;BME280;24301;54.332;48.386;2022-08-16T07:22:51;99894.06;;;41.80;15.39
38530;BME280;24301;54.332;48.386;2022-08-16T07:25:25;99889.59;;;41.79;15.06
38530;BME280;24301;54.332;48.386;2022-08-16T07:27:52;99902.75;;;40.85;15.49
38530;BME280;24301;54.332;48.386;2022-08-16T07:30:22;99891.34;;;40.88;16.26
38530;BME280;24301;54.332;48.386;2022-08-16T07:32:48;99892.31;;;41.31;15.80
38530;BME280;24301;54.332;48.386;2022-08-16T07:35:17;99884.34;;;41.14;15.84
38530;BME280;24301;54.332;48.386;2022-08-16T07:37:43;99887.00;;;40.72;15.77
38530;BME280;24301;54.332;48.386;2022-08-16T07:40:34;99885.88;;;40.08;16.66
38530;BME280;24301;54.332;48.386;2022-08-16T07:43:01;99871.72;;;39.29;17.18
38530;BME280;24301;54.332;48.386;2022-08-16T07:45:27;99878.22;;;39.73;17.53
38530;BME280;24301;54.332;48.386;2022-08-16T07:47:53;99879.19;;;40.32;16.58
38530;BME280;24301;54.332;48.386;2022-08-16T07:50:20;99875.91;;;39.55;17.23
38530;BME280;24301;54.332;48.386;2022-08-16T07:52:46;99869.34;;;39.71;16.67
38530;BME280;24301;54.332;48.386;2022-08-16T07:55:16;99868.47;;;38.95;17.59
38530;BME280;24301;54.332;48.386;2022-08-16T07:57:43;99866.13;;;39.22;17.35
38530;BME280;24301;54.332;48.386;2022-08-16T08:00:11;99867.81;;;39.23;17.36
38530;BME280;24301;54.332;48.386;2022-08-16T08:02:42;99870.56;;;38.23;18.17
38530;BME280;24301;54.332;48.386;2022-08-16T08:05:15;99874.25;;;38.07;18.48
38530;BME280;24301;54.332;48.386;2022-08-16T08:07:42;99868.91;;;37.74;18.48
38530;BME280;24301;54.332;48.386;2022-08-16T08:10:08;99870.59;;;37.75;18.87
38530;BME280;24301;54.332;48.386;2022-08-16T08:12:35;99871.41;;;37.44;19.23
38530;BME280;24301;54.332;48.386;2022-08-16T08:15:01;99865.53;;;35.81;20.72
38530;BME280;24301;54.332;48.386;2022-08-16T08:17:29;99868.09;;;34.51;22.23
38530;BME280;24301;54.332;48.386;2022-08-16T08:19:55;99853.66;;;33.38;24.26
38530;BME280;24301;54.332;48.386;2022-08-16T08:22:21;99859.22;;;32.30;24.99
38530;BME280;24301;54.332;48.386;2022-08-16T08:24:50;99853.94;;;30.94;27.08
38530;BME280;24301;54.332;48.386;2022-08-16T08:27:16;99849.06;;;29.79;28.41
38530;BME280;24301;54.332;48.386;2022-08-16T08:29:43;99847.69;;;28.93;30.04
38530;BME280;24301;54.332;48.386;2022-08-16T08:32:11;99835.81;;;28.36;31.08
38530;BME280;24301;54.332;48.386;2022-08-16T08:34:37;99842.28;;;27.72;31.94
38530;BME280;24301;54.332;48.386;2022-08-16T08:37:04;99851.81;;;27.25;33.48
38530;BME280;24301;54.332;48.386;2022-08-16T08:39:34;99844.19;;;27.06;33.94
38530;BME280;24301;54.332;48.386;2022-08-16T08:42:03;99843.06;;;26.96;35.17
38530;BME280;24301;54.332;48.386;2022-08-16T08:44:31;99841.13;;;26.98;35.27
38530;BME280;24301;54.332;48.386;2022-08-16T08:47:13;99834.84;;;26.72;35.08
38530;BME280;24301;54.332;48.386;2022-08-16T08:49:39;99832.69;;;26.36;36.48
38530;BME280;24301;54.332;48.386;2022-08-16T08:52:05;99839.03;;;26.35;35.90
38530;BME280;24301;54.332;48.386;2022-08-16T08:54:32;99846.28;;;26.35;36.05
38530;BME280;24301;54.332;48.386;2022-08-16T08:56:59;99853.19;;;26.39;36.74
38530;BME280;24301;54.332;48.386;2022-08-16T08:59:33;99845.91;;;26.27;37.36
38530;BME280;24301;54.332;48.386;2022-08-16T09:02:00;99845.72;;;26.30;37.31
38530;BME280;24301;54.332;48.386;2022-08-16T09:04:37;99840.44;;;26.28;37.37
38530;BME280;24301;54.332;48.386;2022-08-16T09:07:05;99834.34;;;26.39;37.17
38530;BME280;24301;54.332;48.386;2022-08-16T09:09:32;99829.03;;;26.37;35.95
38530;BME280;24301;54.332;48.386;2022-08-16T09:11:58;99841.06;;;26.19;36.46
38530;BME280;24301;54.332;48.386;2022-08-16T09:14:25;99835.38;;;26.36;37.13
38530;BME280;24301;54.332;48.386;2022-08-16T09:16:52;99832.00;;;26.60;37.09
38530;BME280;24301;54.332;48.386;2022-08-16T09:19:18;99832.44;;;26.54;36.60
38530;BME280;24301;54.332;48.386;2022-08-16T09:21:47;99835.00;;;26.43;36.82
38530;BME280;24301;54.332;48.386;2022-08-16T09:24:18;99826.41;;;26.23;36.71
38530;BME280;24301;54.332;48.386;2022-08-16T09:26:44;99828.22;;;26.22;36.49
38530;BME280;24301;54.332;48.386;2022-08-16T09:29:11;99824.50;;;26.10;36.36
38530;BME280;24301;54.332;48.386;2022-08-16T09:31:38;99825.78;;;26.05;36.59
38530;BME280;24301;54.332;48.386;2022-08-16T09:34:04;99814.38;;;26.29;36.92
38530;BME280;24301;54.332;48.386;2022-08-16T09:36:30;99814.94;;;26.34;36.03
38530;BME280;24301;54.332;48.386;2022-08-16T09:38:56;99818.13;;;26.26;37.21
38530;BME280;24301;54.332;48.386;2022-08-16T09:41:23;99817.66;;;26.19;37.51
38530;BME280;24301;54.332;48.386;2022-08-16T09:43:49;99819.53;;;26.19;37.79
38530;BME280;24301;54.332;48.386;2022-08-16T09:46:15;99817.38;;;26.09;38.01
38530;BME280;24301;54.332;48.386;2022-08-16T09:48:41;99810.34;;;25.94;38.46
38530;BME280;24301;54.332;48.386;2022-08-16T09:51:12;99818.91;;;25.86;38.68
38530;BME280;24301;54.332;48.386;2022-08-16T09:53:38;99823.41;;;25.86;38.93
38530;BME280;24301;54.332;48.386;2022-08-16T09:56:12;99819.00;;;25.85;39.25
38530;BME280;24301;54.332;48.386;2022-08-16T09:58:40;99820.78;;;25.99;38.68
38530;BME280;24301;54.332;48.386;2022-08-16T10:01:06;99815.41;;;25.99;38.76
38530;BME280;24301;54.332;48.386;2022-08-16T10:03:32;99804.59;;;25.86;37.89
38530;BME280;24301;54.332;48.386;2022-08-16T10:05:58;99810.56;;;25.76;37.57
38530;BME280;24301;54.332;48.386;2022-08-16T10:08:24;99808.16;;;25.86;38.17
38530;BME280;24301;54.332;48.386;2022-08-16T10:10:50;99817.53;;;25.93;38.16
38530;BME280;24301;54.332;48.386;2022-08-16T10:13:34;99808.41;;;25.96;38.92
38530;BME280;24301;54.332;48.386;2022-08-16T10:16:00;99811.03;;;26.10;38.54
38530;BME280;24301;54.332;48.386;2022-08-16T10:18:28;99817.00;;;26.16;37.94
38530;BME280;24301;54.332;48.386;2022-08-16T10:20:56;99816.91;;;26.17;38.00
38530;BME280;24301;54.332;48.386;2022-08-16T10:23:23;99806.19;;;26.03;37.99
38530;BME280;24301;54.332;48.386;2022-08-16T10:25:49;99818.00;;;26.00;39.38
38530;BME280;24301;54.332;48.386;2022-08-16T10:28:15;99815.66;;;26.08;39.38
38530;BME280;24301;54.332;48.386;2022-08-16T10:30:41;99814.41;;;26.14;39.34
38530;BME280;24301;54.332;48.386;2022-08-16T10:33:09;99802.06;;;26.24;39.04
38530;BME280;24301;54.332;48.386;2022-08-16T10:35:36;99807.47;;;26.37;38.42
38530;BME280;24301;54.332;48.386;2022-08-16T10:38:02;99803.69;;;26.27;38.31
38530;BME280;24301;54.332;48.386;2022-08-16T10:40:28;99806.94;;;26.32;37.91
38530;BME280;24301;54.332;48.386;2022-08-16T10:42:55;99794.22;;;26.34;37.93
38530;BME280;24301;54.332;48.386;2022-08-16T10:45:21;99791.03;;;26.15;39.04
38530;BME280;24301;54.332;48.386;2022-08-16T10:47:47;99799.03;;;26.02;38.51
38530;BME280;24301;54.332;48.386;2022-08-16T10:50:14;99794.41;;;25.91;38.00
38530;BME280;24301;54.332;48.386;2022-08-16T10:52:40;99792.78;;;26.16;38.05
38530;BME280;24301;54.332;48.386;2022-08-16T10:55:06;99791.22;;;26.26;38.40
38530;BME280;24301;54.332;48.386;2022-08-16T10:57:38;99791.41;;;26.23;39.01
38530;BME280;24301;54.332;48.386;2022-08-16T11:00:07;99793.66;;;26.16;38.70
38530;BME280;24301;54.332;48.386;2022-08-16T11:02:38;99797.56;;;26.10;38.94
38530;BME280;24301;54.332;48.386;2022-08-16T11:05:05;99800.28;;;26.10;39.62
38530;BME280;24301;54.332;48.386;2022-08-16T11:07:52;99797.78;;;26.22;39.05
38530;BME280;24301;54.332;48.386;2022-08-16T11:10:22;99789.50;;;26.38;39.21
38530;BME280;24301;54.332;48.386;2022-08-16T11:12:49;99795.13;;;26.48;39.21
38530;BME280;24301;54.332;48.386;2022-08-16T11:15:14;99791.69;;;26.46;38.70
38530;BME280;24301;54.332;48.386;2022-08-16T11:17:41;99777.88;;;26.50;38.83
38530;BME280;24301;54.332;48.386;2022-08-16T11:20:08;99791.16;;;26.41;39.18
38530;BME280;24301;54.332;48.386;2022-08-16T11:22:39;99788.09;;;26.32;39.51
38530;BME280;24301;54.332;48.386;2022-08-16T11:25:05;99785.50;;;26.31;38.56
38530;BME280;24301;54.332;48.386;2022-08-16T11:27:31;99783.06;;;26.41;38.67
38530;BME280;24301;54.332;48.386;2022-08-16T11:29:57;99783.94;;;26.54;38.33
38530;BME280;24301;54.332;48.386;2022-08-16T11:32:25;99776.59;;;26.56;38.15
38530;BME280;24301;54.332;48.386;2022-08-16T11:34:51;99786.19;;;26.47;38.43
38530;BME280;24301;54.332;48.386;2022-08-16T11:37:17;99766.25;;;26.37;38.66
38530;BME280;24301;54.332;48.386;2022-08-16T11:39:44;99773.09;;;26.28;39.04
38530;BME280;24301;54.332;48.386;2022-08-16T11:42:09;99762.34;;;26.28;38.90
38530;BME280;24301;54.332;48.386;2022-08-16T11:44:35;99752.19;;;26.19;39.02
38530;BME280;24301;54.332;48.386;2022-08-16T11:47:01;99770.09;;;26.20;39.02
38530;BME280;24301;54.332;48.386;2022-08-16T11:49:27;99753.50;;;26.26;39.00
38530;BME280;24301;54.332;48.386;2022-08-16T11:51:53;99748.66;;;26.31;38.87
38530;BME280;24301;54.332;48.386;2022-08-16T11:54:20;99753.19;;;26.31;39.08
38530;BME280;24301;54.332;48.386;2022-08-16T11:56:58;99755.00;;;26.30;39.53
38530;BME280;24301;54.332;48.386;2022-08-16T11:59:25;99745.09;;;26.18;39.09
38530;BME280;24301;54.332;48.386;2022-08-16T12:01:57;99743.56;;;26.27;38.89
38530;BME280;24301;54.332;48.386;2022-08-16T12:04:23;99741.44;;;26.19;38.78
38530;BME280;24301;54.332;48.386;2022-08-16T12:06:50;99745.66;;;26.08;38.46
38530;BME280;24301;54.332;48.386;2022-08-16T12:09:17;99744.47;;;26.13;39.00
38530;BME280;24301;54.332;48.386;2022-08-16T12:11:42;99741.03;;;26.10;39.54
38530;BME280;24301;54.332;48.386;2022-08-16T12:14:09;99738.75;;;26.19;39.43
38530;BME280;24301;54.332;48.386;2022-08-16T12:16:35;99738.41;;;26.23;39.14
38530;BME280;24301;54.332;48.386;2022-08-16T12:19:03;99742.66;;;26.13;39.35
38530;BME280;24301;54.332;48.386;2022-08-16T12:21:29;99754.13;;;26.17;39.36
38530;BME280;24301;54.332;48.386;2022-08-16T12:23:55;99742.94;;;26.23;38.37
38530;BME280;24301;54.332;48.386;2022-08-16T12:26:21;99745.09;;;26.18;39.33
38530;BME280;24301;54.332;48.386;2022-08-16T12:28:51;99744.31;;;26.16;39.00
38530;BME280;24301;54.332;48.386;2022-08-16T12:31:21;99743.91;;;26.22;39.69
38530;BME280;24301;54.332;48.386;2022-08-16T12:33:47;99733.03;;;26.23;39.03
38530;BME280;24301;54.332;48.386;2022-08-16T12:36:13;99743.16;;;26.20;38.68
38530;BME280;24301;54.332;48.386;2022-08-16T12:38:41;99737.78;;;26.20;39.33
38530;BME280;24301;54.332;48.386;2022-08-16T12:41:07;99735.84;;;26.22;39.68
38530;BME280;24301;54.332;48.386;2022-08-16T12:43:33;99733.69;;;26.27;40.32
38530;BME280;24301;54.332;48.386;2022-08-16T12:45:59;99734.09;;;26.21;39.98
38530;BME280;24301;54.332;48.386;2022-08-16T12:48:28;99732.38;;;26.20;40.54
38530;BME280;24301;54.332;48.386;2022-08-16T12:51:16;99734.34;;;26.31;39.65
38530;BME280;24301;54.332;48.386;2022-08-16T12:53:43;99727.44;;;26.39;39.17
38530;BME280;24301;54.332;48.386;2022-08-16T12:56:10;99726.16;;;26.32;39.89
38530;BME280;24301;54.332;48.386;2022-08-16T12:58:37;99723.00;;;26.25;40.03
38530;BME280;24301;54.332;48.386;2022-08-16T13:01:07;99726.03;;;26.21;40.23
38530;BME280;24301;54.332;48.386;2022-08-16T13:03:33;99709.44;;;26.00;38.86
38530;BME280;24301;54.332;48.386;2022-08-16T13:05:59;99717.44;;;26.01;38.05
38530;BME280;24301;54.332;48.386;2022-08-16T13:08:43;99716.06;;;26.08;37.55